createdAt,value
2022-12-15T00:00:01.180Z,61.50
2022-12-15T00:03:51.273Z,56.05
2022-12-15T00:06:56.974Z,59.53
2022-12-15T00:10:02.401Z,56.53
2022-12-15T00:13:08.106Z,59.55
2022-12-15T00:16:13.692Z,52.92
2022-12-15T00:19:19.515Z,58.35
2022-12-15T00:22:25.378Z,52.47
2022-12-15T00:25:31.067Z,59.05
2022-12-15T00:28:36.563Z,56.90
2022-12-15T00:31:42.362Z,57.03
2022-12-15T00:34:47.976Z,60.55
2022-12-15T00:37:53.671Z,55.40
2022-12-15T00:40:40.698Z,52.58
2022-12-15T00:43:33.177Z,57.15
2022-12-15T00:46:39.198Z,57.35
2022-12-15T00:49:46.850Z,62.78
2022-12-15T00:52:52.403Z,59.55
2022-12-15T00:55:58.123Z,60.92
2022-12-15T00:59:03.950Z,60.58
2022-12-15T01:02:09.907Z,59.97
2022-12-15T01:05:17.725Z,64.90
2022-12-15T01:08:23.564Z,58.22
2022-12-15T01:11:29.294Z,54.75
2022-12-15T01:14:35.005Z,57.13
2022-12-15T01:17:40.600Z,59.42
2022-12-15T01:20:27.650Z,54.38
2022-12-15T01:23:14.673Z,61.85
2022-12-15T01:26:02.159Z,60.20
2022-12-15T01:28:49.221Z,57.38
2022-12-15T01:31:36.812Z,57.97
2022-12-15T01:34:23.936Z,57.42
2022-12-15T01:37:11.057Z,50.97
2022-12-15T01:40:16.398Z,52.20
2022-12-15T01:43:03.493Z,53.92
2022-12-15T01:45:58.851Z,59.67
2022-12-15T01:48:57.553Z,56.30
2022-12-15T01:51:48.790Z,54.55
2022-12-15T01:54:41.088Z,55.65
2022-12-15T01:57:32.159Z,53.60
2022-12-15T02:00:19.168Z,56.38
2022-12-15T02:03:07.785Z,55.13
2022-12-15T02:05:55.976Z,57.40
2022-12-15T02:08:47.396Z,54.00
2022-12-15T02:12:08.291Z,59.55
2022-12-15T02:15:10.904Z,52.88
2022-12-15T02:18:03.159Z,56.88
2022-12-15T02:21:16.647Z,60.00
2022-12-15T02:24:15.692Z,57.40
2022-12-15T02:27:12.410Z,56.80
2022-12-15T02:30:05.222Z,60.67
2022-12-15T02:33:15.193Z,59.10
2022-12-15T02:36:12.877Z,61.78
2022-12-15T02:39:00.004Z,61.92
2022-12-15T02:41:47.967Z,54.92
2022-12-15T02:44:47.220Z,56.25
2022-12-15T02:47:58.311Z,60.35
2022-12-15T02:51:00.442Z,51.40
2022-12-15T02:54:15.850Z,60.38
2022-12-15T02:57:20.744Z,61.10
2022-12-15T03:00:11.251Z,60.33
2022-12-15T03:02:59.012Z,59.83
2022-12-15T03:05:54.816Z,61.20
2022-12-15T03:08:41.860Z,59.25
2022-12-15T03:11:29.233Z,60.78
2022-12-15T03:14:16.715Z,59.20
2022-12-15T03:17:07.254Z,57.53
2022-12-15T03:19:54.291Z,54.58
2022-12-15T03:22:42.537Z,48.75
2022-12-15T03:25:30.096Z,48.42
2022-12-15T03:28:17.268Z,53.20
2022-12-15T03:31:04.414Z,50.35
2022-12-15T03:33:51.469Z,50.85
2022-12-15T03:36:38.740Z,57.05
2022-12-15T03:39:25.794Z,59.22
2022-12-15T03:42:12.896Z,59.95
2022-12-15T03:44:59.918Z,59.22
2022-12-15T03:47:47.728Z,54.53
2022-12-15T03:50:34.775Z,64.38
2022-12-15T03:53:21.909Z,62.17
2022-12-15T03:56:09.119Z,60.65
2022-12-15T03:58:56.249Z,55.03
2022-12-15T04:01:48.322Z,57.90
2022-12-15T04:04:35.640Z,59.67
2022-12-15T04:07:22.772Z,59.75
2022-12-15T04:10:11.271Z,58.75
2022-12-15T04:13:02.967Z,56.55
2022-12-15T04:15:50.180Z,56.95
2022-12-15T04:18:37.890Z,58.90
2022-12-15T04:21:24.931Z,54.17
2022-12-15T04:24:30.920Z,58.08
2022-12-15T04:27:36.889Z,54.85
2022-12-15T04:30:44.536Z,54.45
2022-12-15T04:33:50.707Z,50.35
2022-12-15T04:36:58.763Z,52.13
2022-12-15T04:40:08.058Z,50.70
2022-12-15T04:43:14.168Z,49.77
2022-12-15T04:46:20.078Z,57.75
2022-12-15T04:49:25.667Z,55.03
2022-12-15T04:52:37.286Z,54.83
2022-12-15T04:55:42.939Z,53.28
2022-12-15T04:58:48.500Z,55.58
2022-12-15T05:01:54.219Z,49.67
2022-12-15T05:04:59.775Z,57.42
2022-12-15T05:08:05.356Z,51.75
2022-12-15T05:11:11.039Z,55.70
2022-12-15T05:14:16.882Z,48.05
2022-12-15T05:17:23.071Z,53.88
2022-12-15T05:20:29.111Z,53.47
2022-12-15T05:23:34.927Z,51.28
2022-12-15T05:26:41.041Z,49.78
2022-12-15T05:29:46.596Z,51.45
2022-12-15T05:32:35.744Z,53.72
2022-12-15T05:35:39.845Z,50.00
2022-12-15T05:38:26.954Z,51.90
2022-12-15T05:41:15.313Z,45.53
2022-12-15T05:44:12.783Z,52.33
2022-12-15T05:47:00.874Z,54.20
2022-12-15T05:49:47.987Z,57.42
2022-12-15T05:52:35.534Z,55.05
2022-12-15T05:55:22.907Z,52.90
2022-12-15T05:58:16.925Z,47.15
2022-12-15T06:01:10.012Z,46.58
2022-12-15T06:03:58.361Z,43.35
2022-12-15T06:06:45.494Z,45.25
2022-12-15T06:09:32.603Z,51.17
2022-12-15T06:12:19.719Z,45.22
2022-12-15T06:15:07.201Z,50.05
2022-12-15T06:17:56.012Z,46.58
2022-12-15T06:20:43.112Z,45.78
2022-12-15T06:23:33.314Z,55.17
2022-12-15T06:26:24.212Z,52.17
2022-12-15T06:29:12.348Z,54.38
2022-12-15T06:31:59.378Z,53.30
2022-12-15T06:34:46.468Z,49.83
2022-12-15T06:37:33.738Z,51.67
2022-12-15T06:40:20.813Z,50.42
2022-12-15T06:43:08.677Z,43.72
2022-12-15T06:45:56.371Z,44.75
2022-12-15T06:48:45.816Z,44.95
2022-12-15T06:51:32.918Z,48.63
2022-12-15T06:54:19.977Z,49.67
2022-12-15T06:57:07.056Z,47.22
2022-12-15T06:59:54.056Z,52.13
2022-12-15T07:02:43.107Z,52.13
2022-12-15T07:05:30.442Z,47.77
2022-12-15T07:08:17.515Z,46.65
2022-12-15T07:11:06.757Z,44.17
2022-12-15T07:13:54.714Z,44.10
2022-12-15T07:16:41.884Z,44.38
2022-12-15T07:19:30.071Z,48.35
2022-12-15T07:22:17.110Z,50.35
2022-12-15T07:25:04.709Z,46.97
2022-12-15T07:27:51.717Z,74.35
2022-12-15T07:30:39.421Z,51.08
2022-12-15T07:33:26.455Z,50.30
2022-12-15T07:36:13.527Z,41.80
2022-12-15T07:39:01.490Z,45.47
2022-12-15T07:41:48.599Z,45.72
2022-12-15T07:44:35.617Z,44.88
2022-12-15T07:47:22.669Z,48.60
2022-12-15T07:50:09.877Z,50.58
2022-12-15T07:52:57.266Z,49.15
2022-12-15T07:56:06.109Z,44.63
2022-12-15T07:58:51.383Z,54.58
2022-12-15T08:01:38.508Z,58.83
2022-12-15T08:04:25.813Z,56.75
2022-12-15T08:07:12.886Z,57.30
2022-12-15T08:10:00.004Z,60.42
2022-12-15T08:12:47.015Z,52.45
2022-12-15T08:15:38.453Z,52.20
2022-12-15T08:18:25.735Z,55.45
2022-12-15T08:21:12.895Z,61.58
2022-12-15T08:24:03.119Z,59.75
2022-12-15T08:29:53.177Z,54.40
2022-12-15T08:32:40.289Z,59.55
2022-12-15T08:35:55.281Z,60.45
2022-12-15T08:38:35.536Z,58.78
2022-12-15T08:41:26.564Z,63.75
2022-12-15T08:44:13.989Z,52.78
2022-12-15T08:47:01.061Z,60.15
2022-12-15T08:49:48.790Z,56.95
2022-12-15T08:52:36.248Z,57.72
2022-12-15T08:55:24.072Z,60.72
2022-12-15T08:58:11.101Z,74.07
2022-12-15T09:01:03.855Z,70.93
2022-12-15T09:03:55.944Z,66.43
2022-12-15T09:06:43.509Z,63.15
2022-12-15T09:09:32.062Z,64.03
2022-12-15T09:12:19.136Z,64.78
2022-12-15T09:15:06.680Z,61.03
2022-12-15T09:17:53.733Z,57.05
2022-12-15T09:20:40.728Z,55.22
2022-12-15T09:23:27.959Z,51.67
2022-12-15T09:26:16.013Z,67.45
2022-12-15T09:29:03.293Z,59.85
2022-12-15T09:31:50.503Z,55.58
2022-12-15T09:34:37.608Z,57.97
2022-12-15T09:37:24.650Z,63.53
2022-12-15T09:40:13.782Z,51.33
2022-12-15T09:43:32.880Z,53.33
2022-12-15T09:46:21.206Z,50.13
2022-12-15T09:49:34.822Z,56.45
2022-12-15T09:52:31.485Z,48.05
2022-12-15T09:55:24.900Z,49.83
2022-12-15T09:58:35.806Z,60.05
2022-12-15T10:01:38.884Z,58.00
2022-12-15T10:04:34.870Z,52.67
2022-12-15T10:07:30.248Z,60.30
2022-12-15T10:10:20.151Z,60.55
2022-12-15T10:13:19.510Z,55.95
2022-12-15T10:16:15.816Z,53.55
2022-12-15T10:19:07.413Z,52.78
2022-12-15T10:21:54.514Z,59.80
2022-12-15T10:25:09.312Z,58.90
2022-12-15T10:28:11.150Z,53.10
2022-12-15T10:31:13.190Z,54.08
2022-12-15T10:34:10.517Z,58.75
2022-12-15T10:36:58.476Z,53.80
2022-12-15T10:42:56.190Z,48.03
2022-12-15T10:45:43.711Z,52.72
2022-12-15T10:48:31.029Z,56.40
2022-12-15T10:51:31.648Z,54.38
2022-12-15T10:54:18.996Z,53.67
2022-12-15T10:57:27.625Z,47.60
2022-12-15T11:00:14.935Z,51.78
2022-12-15T11:03:20.238Z,45.15
2022-12-15T11:06:16.950Z,48.47
2022-12-15T11:09:37.464Z,53.25
2022-12-15T11:12:50.402Z,52.60
2022-12-15T11:15:47.149Z,59.55
2022-12-15T11:18:37.973Z,54.00
2022-12-15T11:21:28.748Z,57.00
2022-12-15T11:24:27.072Z,56.05
2022-12-15T11:27:14.409Z,55.50
2022-12-15T11:30:13.688Z,54.70
2022-12-15T11:33:02.262Z,61.70
2022-12-15T11:36:01.453Z,59.60
2022-12-15T11:39:03.780Z,59.17
2022-12-15T11:42:02.911Z,53.65
2022-12-15T11:45:31.325Z,55.65
2022-12-15T11:48:22.423Z,58.90
2022-12-15T11:51:09.509Z,55.53
2022-12-15T11:54:24.044Z,55.28
2022-12-15T11:57:48.593Z,54.30
2022-12-15T12:00:43.885Z,61.30
2022-12-15T12:03:51.735Z,54.60
2022-12-15T12:06:52.938Z,52.03
2022-12-15T12:09:58.840Z,57.08
2022-12-15T12:12:56.833Z,58.05
2022-12-15T12:16:22.489Z,61.78
2022-12-15T12:19:13.743Z,55.92
2022-12-15T12:22:10.711Z,56.85
2022-12-15T12:25:10.998Z,54.95
2022-12-15T12:30:50.832Z,57.28
2022-12-15T12:33:42.989Z,59.65
2022-12-15T12:36:29.983Z,53.92
2022-12-15T12:39:21.683Z,58.70
2022-12-15T12:42:20.419Z,55.53
2022-12-15T12:45:12.681Z,55.35
2022-12-15T12:48:08.883Z,54.63
2022-12-15T12:51:27.565Z,53.55
2022-12-15T12:54:35.446Z,53.20
2022-12-15T12:57:35.864Z,55.13
2022-12-15T13:00:27.277Z,47.40
2022-12-15T13:03:18.706Z,47.90
2022-12-15T13:06:41.378Z,53.10
2022-12-15T13:09:44.081Z,54.05
2022-12-15T13:12:58.863Z,50.15
2022-12-15T13:15:50.963Z,49.72
2022-12-15T13:19:02.309Z,49.60
2022-12-15T13:21:55.360Z,48.70
2022-12-15T13:24:50.390Z,50.20
2022-12-15T13:27:40.822Z,45.80
2022-12-15T13:33:19.040Z,50.88
2022-12-15T13:36:06.254Z,54.97
2022-12-15T13:38:56.808Z,51.22
2022-12-15T13:42:15.102Z,51.63
2022-12-15T13:45:06.354Z,55.88
2022-12-15T13:47:56.386Z,53.50
2022-12-15T13:51:00.178Z,47.80
2022-12-15T13:54:10.050Z,48.78
2022-12-15T13:57:05.504Z,47.42
2022-12-15T14:00:00.192Z,51.97
2022-12-15T14:02:47.533Z,50.28
2022-12-15T14:05:34.893Z,49.38
2022-12-15T14:08:23.979Z,46.72
2022-12-15T14:11:51.304Z,50.15
2022-12-15T14:14:36.287Z,35.17
2022-12-15T14:17:23.512Z,51.25
2022-12-15T14:20:19.720Z,50.05
2022-12-15T14:23:58.016Z,53.25
2022-12-15T14:26:50.639Z,48.90
2022-12-15T14:29:37.748Z,47.53
2022-12-15T14:32:25.057Z,48.08
2022-12-15T14:35:24.940Z,48.25
2022-12-15T14:38:16.524Z,47.28
2022-12-15T14:41:05.123Z,52.65
2022-12-15T14:44:37.062Z,49.78
2022-12-15T14:47:16.630Z,52.53
2022-12-15T14:50:10.258Z,49.97
2022-12-15T14:53:06.874Z,58.75
2022-12-15T14:55:54.433Z,55.40
2022-12-15T14:58:47.155Z,54.58
2022-12-15T15:01:57.948Z,56.85
2022-12-15T15:03:04.488Z,53.88
2022-12-15T15:05:04.319Z,58.63
2022-12-15T15:07:56.790Z,53.50
2022-12-15T15:10:44.067Z,53.80
2022-12-15T15:13:40.880Z,58.78
2022-12-15T15:16:28.283Z,58.47
2022-12-15T15:19:21.505Z,58.70
2022-12-15T15:22:26.371Z,55.58
2022-12-15T15:25:41.566Z,55.35
2022-12-15T15:28:36.460Z,57.55
2022-12-15T15:31:41.481Z,59.85
2022-12-15T15:34:31.588Z,59.58
2022-12-15T15:37:23.733Z,60.15
2022-12-15T15:40:13.430Z,57.90
2022-12-15T15:43:00.547Z,62.35
2022-12-15T15:45:49.573Z,62.67
2022-12-15T15:48:42.325Z,64.53
2022-12-15T15:51:31.442Z,64.53
2022-12-15T15:54:23.071Z,67.85
2022-12-15T15:57:18.275Z,68.32
2022-12-15T16:00:20.262Z,70.32
2022-12-15T16:03:08.757Z,72.10
2022-12-15T16:05:56.520Z,70.03
2022-12-15T16:08:44.828Z,72.55
2022-12-15T16:11:32.496Z,72.65
2022-12-15T16:14:19.645Z,73.82
2022-12-15T16:17:09.814Z,72.40
2022-12-15T16:22:47.334Z,71.75
2022-12-15T16:25:48.560Z,77.13
2022-12-15T16:28:38.208Z,75.60
2022-12-15T16:31:42.056Z,73.30
2022-12-15T16:34:29.357Z,73.68
2022-12-15T16:37:27.790Z,72.00
2022-12-15T16:40:27.797Z,73.30
2022-12-15T16:43:21.270Z,76.75
2022-12-15T16:46:12.545Z,74.20
2022-12-15T16:48:59.880Z,79.75
2022-12-15T16:51:51.490Z,75.88
2022-12-15T16:54:39.329Z,79.85
2022-12-15T16:57:26.754Z,74.40
2022-12-15T17:00:22.664Z,79.07
2022-12-15T17:03:15.575Z,77.15
2022-12-15T17:06:06.764Z,86.97
2022-12-15T17:08:57.799Z,79.22
2022-12-15T17:11:45.438Z,79.70
2022-12-15T17:14:33.103Z,79.13
2022-12-15T17:17:20.792Z,80.15
2022-12-15T17:23:22.761Z,78.90
2022-12-15T17:26:29.039Z,82.22
2022-12-15T17:29:20.405Z,76.55
2022-12-15T17:32:13.058Z,73.25
2022-12-15T17:35:03.909Z,85.20
2022-12-15T17:37:51.869Z,75.35
2022-12-15T17:40:40.530Z,82.47
2022-12-15T17:43:33.843Z,87.22
2022-12-15T17:46:23.402Z,76.28
2022-12-15T17:49:10.609Z,87.18
2022-12-15T17:52:01.376Z,78.85
2022-12-15T17:54:49.042Z,78.20
2022-12-15T17:57:36.693Z,81.70
2022-12-15T18:00:31.871Z,87.32
2022-12-15T18:03:21.535Z,87.78
2022-12-15T18:06:14.876Z,85.28
2022-12-15T18:09:02.729Z,82.03
2022-12-15T18:11:49.876Z,85.82
2022-12-15T18:14:37.545Z,84.60
2022-12-15T18:17:25.097Z,84.78
2022-12-15T18:20:12.410Z,90.43
2022-12-15T18:23:00.656Z,100.70
2022-12-15T18:25:48.737Z,91.93
2022-12-15T18:28:36.388Z,88.82
2022-12-15T18:31:27.032Z,95.22
2022-12-15T18:34:19.065Z,90.10
2022-12-15T18:37:17.645Z,97.82
2022-12-15T18:40:05.466Z,88.20
2022-12-15T18:42:54.474Z,99.82
2022-12-15T18:45:42.349Z,92.78
2022-12-15T18:48:35.441Z,96.60
2022-12-15T18:51:23.919Z,92.50
2022-12-15T18:54:23.585Z,95.82
2022-12-15T18:57:32.315Z,93.70
2022-12-15T19:00:25.203Z,80.90
2022-12-15T19:03:13.175Z,97.82
2022-12-15T19:06:04.125Z,88.32
2022-12-15T19:08:52.406Z,98.50
2022-12-15T19:11:41.324Z,92.32
2022-12-15T19:14:40.865Z,98.13
2022-12-15T19:17:47.039Z,98.07
2022-12-15T19:20:53.790Z,94.03
2022-12-15T19:23:41.028Z,98.93
2022-12-15T19:26:28.682Z,93.82
2022-12-15T19:29:19.440Z,92.55
2022-12-15T19:32:08.965Z,92.22
2022-12-15T19:34:59.189Z,86.20
2022-12-15T19:37:50.543Z,87.13
2022-12-15T19:51:45.376Z,75.85
2022-12-15T19:57:50.921Z,89.63
2022-12-15T20:00:40.177Z,80.40
2022-12-15T20:03:29.495Z,81.80
2022-12-15T20:06:21.061Z,78.13
2022-12-15T20:09:15.624Z,83.43
2022-12-15T20:12:03.958Z,78.82
2022-12-15T20:14:51.504Z,80.97
2022-12-15T20:17:39.247Z,77.97
2022-12-15T20:20:28.706Z,78.75
2022-12-15T20:23:29.718Z,75.00
2022-12-15T20:26:17.851Z,85.90
2022-12-15T20:29:07.879Z,88.05
2022-12-15T20:31:57.591Z,84.63
2022-12-15T20:34:47.471Z,77.97
2022-12-15T20:37:34.751Z,82.97
2022-12-15T20:40:25.666Z,89.03
2022-12-15T20:43:18.448Z,86.65
2022-12-15T20:46:23.797Z,88.15
2022-12-15T20:49:17.179Z,78.70
2022-12-15T20:52:07.018Z,77.13
2022-12-15T20:54:55.276Z,82.05
2022-12-15T20:57:42.832Z,88.10
2022-12-15T21:00:30.486Z,83.97
2022-12-15T21:03:28.417Z,84.20
2022-12-15T21:06:15.982Z,80.35
2022-12-15T21:09:03.560Z,79.07
2022-12-15T21:11:52.220Z,82.28
2022-12-15T21:14:42.750Z,80.97
2022-12-15T21:17:29.900Z,81.32
2022-12-15T21:20:17.142Z,85.35
2022-12-15T21:23:04.228Z,84.35
2022-12-15T21:25:52.073Z,85.72
2022-12-15T21:28:39.138Z,93.35
2022-12-15T21:31:26.715Z,85.47
2022-12-15T21:34:13.961Z,86.38
2022-12-15T21:37:03.043Z,89.30
2022-12-15T21:39:50.235Z,89.82
2022-12-15T21:42:38.345Z,86.43
2022-12-15T21:45:26.738Z,78.97
2022-12-15T21:48:32.669Z,78.93
2022-12-15T21:51:19.892Z,86.75
2022-12-15T21:54:20.246Z,80.57
2022-12-15T21:57:11.778Z,80.68
2022-12-15T21:59:58.950Z,83.78
2022-12-15T22:02:47.595Z,81.13
2022-12-15T22:05:34.670Z,86.25
2022-12-15T22:08:22.491Z,81.90
2022-12-15T22:11:23.190Z,87.18
2022-12-15T22:14:19.752Z,81.57
2022-12-15T22:17:27.032Z,82.40
2022-12-15T22:20:15.483Z,85.80
2022-12-15T22:23:02.546Z,85.47
2022-12-15T22:25:54.711Z,85.95
2022-12-15T22:28:41.881Z,81.53
2022-12-15T22:31:29.372Z,88.45
2022-12-15T22:34:21.903Z,84.88
2022-12-15T22:37:09.140Z,82.85
2022-12-15T22:39:56.240Z,84.22
2022-12-15T22:42:51.319Z,79.75
2022-12-15T22:45:42.739Z,76.28
2022-12-15T22:48:34.503Z,77.53
2022-12-15T22:51:22.168Z,81.45
2022-12-15T22:54:19.334Z,81.07
2022-12-15T22:57:17.435Z,76.82
2022-12-15T23:00:09.771Z,70.80
2022-12-15T23:05:50.971Z,69.75
2022-12-15T23:08:38.786Z,73.35
2022-12-15T23:11:38.179Z,65.47
2022-12-15T23:14:43.948Z,65.05
2022-12-15T23:17:30.966Z,62.38
2022-12-15T23:20:18.083Z,69.15
2022-12-15T23:23:05.459Z,60.08
2022-12-15T23:25:52.566Z,62.63
2022-12-15T23:28:41.250Z,59.75
2022-12-15T23:31:29.043Z,58.70
2022-12-15T23:34:16.168Z,62.42
2022-12-15T23:37:03.220Z,58.65
2022-12-15T23:39:50.223Z,68.28
2022-12-15T23:42:38.854Z,59.40
2022-12-15T23:45:25.974Z,59.45
2022-12-15T23:48:14.312Z,57.55
2022-12-15T23:51:16.231Z,58.58
2022-12-15T23:54:03.347Z,55.85
2022-12-15T23:56:50.330Z,52.60
2022-12-15T23:59:38.763Z,55.65
